Terminal Aerodrome Forecast
Issued by NWS Tuscon, AZ

Home | Current Version | Previous Version | Text Only | Print | Product List | Glossary On
Versions: 1 2 3 4 5 6 7 8 9 10 11 12 13 14 15 16 17 18
000
FTUS45 KTWC 072337
TAFTUS
TAF
KTUS 072337Z 0800/0824 25006KT P6SM VCSH BKN100
     FM080200 32006KT P6SM SCT100 SCT300
     FM080800 15005KT P6SM SCT300
     FM081900 21012G18KT P6SM SCT100 SCT300=

USA.gov is the U.S. government's official web portal to all federal, state and local government web resources and services.